Time;durP1;ratioP1;P1;durP2;ratioP2;P2;SDS_P1;SDS_P2;PMS_P1;PMS_P2;Temp;Humidity;BMP_temperature;BMP_pressure;BME280_temperature;BME280_humidity;BME280_pressure;Samples;Min_cycle;Max_cycle;Signal;HPM_P1;HPM_P2
2024/01/07 00:00:57;;;;;;;44.57;27.93;;;;;;;4.47;100.00;99801.78;5048673;28;20214;-78
2024/01/07 00:03:23;;;;;;;46.23;26.77;;;;;;;4.43;100.00;99804.28;5046263;28;20217;-78
2024/01/07 00:05:48;;;;;;;44.47;25.97;;;;;;;4.47;100.00;99802.59;5050490;28;20291;-77
2024/01/07 00:08:13;;;;;;;40.70;27.30;;;;;;;4.50;100.00;99804.34;5050768;28;20244;-78
2024/01/07 00:10:39;;;;;;;46.47;29.00;;;;;;;4.45;100.00;99801.78;5058723;28;20268;-76
2024/01/07 00:13:04;;;;;;;39.43;25.10;;;;;;;4.42;100.00;99806.84;5055191;28;20178;-77
2024/01/07 00:15:29;;;;;;;44.13;28.20;;;;;;;4.46;100.00;99802.59;5051776;28;20292;-76
2024/01/07 00:17:55;;;;;;;39.40;25.17;;;;;;;4.48;100.00;99811.16;5052803;28;20633;-77
2024/01/07 00:20:20;;;;;;;41.37;26.43;;;;;;;4.48;100.00;99811.16;5053064;28;20654;-78
2024/01/07 00:22:45;;;;;;;42.20;27.17;;;;;;;4.55;100.00;99816.38;5052833;28;20218;-77
2024/01/07 00:25:11;;;;;;;41.07;26.37;;;;;;;4.58;100.00;99811.25;5047631;28;20204;-77
2024/01/07 00:27:36;;;;;;;42.50;26.87;;;;;;;4.56;100.00;99819.75;5054377;28;20187;-76
2024/01/07 00:30:03;;;;;;;42.07;26.67;;;;;;;4.49;100.00;99812.88;5049838;28;20193;-76
2024/01/07 00:32:28;;;;;;;37.23;26.13;;;;;;;4.52;100.00;99820.63;5052143;28;22156;-77
2024/01/07 00:34:53;;;;;;;36.67;24.53;;;;;;;4.53;100.00;99812.91;5053588;28;20747;-77
2024/01/07 00:37:18;;;;;;;32.80;23.27;;;;;;;4.49;100.00;99816.28;5051861;28;20616;-77
2024/01/07 00:39:45;;;;;;;32.40;23.60;;;;;;;4.52;100.00;99821.44;5050490;28;20183;-77
2024/01/07 00:42:11;;;;;;;35.87;24.67;;;;;;;4.58;100.00;99812.94;5049706;28;20265;-77
2024/01/07 00:44:37;;;;;;;31.50;23.20;;;;;;;4.56;100.00;99815.50;5045356;28;20190;-78
2024/01/07 00:47:03;;;;;;;33.43;23.77;;;;;;;4.53;100.00;99815.50;5059816;28;20198;-77
2024/01/07 00:49:28;;;;;;;36.50;24.20;;;;;;;4.51;100.00;99824.84;5051740;28;20235;-77
2024/01/07 00:51:53;;;;;;;32.63;23.57;;;;;;;4.51;100.00;99824.84;5055559;28;20257;-78
2024/01/07 00:54:18;;;;;;;29.73;23.33;;;;;;;4.54;100.00;99824.91;5054223;28;20846;-76
2024/01/07 00:56:45;;;;;;;27.47;20.07;;;;;;;4.52;100.00;99828.31;5051062;28;20209;-77
2024/01/07 00:59:10;;;;;;;18.80;16.10;;;;;;;4.52;100.00;99824.03;5059477;28;20178;-76
2024/01/07 01:01:35;;;;;;;23.20;17.63;;;;;;;4.47;100.00;99823.09;5061072;28;20186;-78
2024/01/07 01:04:01;;;;;;;24.57;18.97;;;;;;;4.43;100.00;99824.78;5051160;28;20202;-78
2024/01/07 01:06:26;;;;;;;16.70;14.60;;;;;;;4.33;100.00;99820.44;5050938;28;20294;-77
2024/01/07 01:08:51;;;;;;;18.63;14.10;;;;;;;4.26;100.00;99821.22;5052463;28;20568;-78
2024/01/07 01:11:17;;;;;;;17.40;14.40;;;;;;;4.26;100.00;99826.34;5058522;28;20205;-77
2024/01/07 01:13:42;;;;;;;21.30;15.97;;;;;;;4.20;100.00;99824.59;5059409;28;20266;-77
2024/01/07 01:16:07;;;;;;;23.10;16.83;;;;;;;4.15;100.00;99826.25;5053902;28;20228;-77
2024/01/07 01:18:32;;;;;;;19.67;15.03;;;;;;;4.12;100.00;99829.63;5053107;28;20183;-77
2024/01/07 01:20:58;;;;;;;18.93;15.63;;;;;;;4.07;100.00;99835.56;5050090;28;20201;-77
2024/01/07 01:23:23;;;;;;;19.73;15.27;;;;;;;4.07;100.00;99833.00;5053036;28;20215;-76
2024/01/07 01:25:49;;;;;;;19.93;15.70;;;;;;;4.03;100.00;99833.78;5054592;28;20293;-78
2024/01/07 01:28:14;;;;;;;22.20;17.23;;;;;;;4.01;100.00;99844.03;5051332;28;20186;-77
2024/01/07 01:30:40;;;;;;;23.87;17.37;;;;;;;4.02;100.00;99839.75;5050134;28;20714;-78
2024/01/07 01:33:06;;;;;;;21.00;16.53;;;;;;;4.00;100.00;99837.19;5053465;28;20182;-77
2024/01/07 01:35:31;;;;;;;20.83;16.23;;;;;;;4.05;100.00;99850.03;5054860;28;20670;-77
2024/01/07 01:37:56;;;;;;;22.43;17.77;;;;;;;4.02;100.00;99847.44;5053410;28;20190;-77
2024/01/07 01:40:22;;;;;;;21.53;17.53;;;;;;;4.04;100.00;99846.63;5049829;28;20183;-77
2024/01/07 01:42:48;;;;;;;19.10;16.00;;;;;;;4.08;100.00;99848.34;5055189;28;20307;-77
2024/01/07 01:45:14;;;;;;;20.00;16.73;;;;;;;4.03;100.00;99849.16;5051670;28;20207;-78
2024/01/07 01:47:41;;;;;;;22.93;17.90;;;;;;;4.16;100.00;99851.00;5061595;28;20744;-78
2024/01/07 01:50:07;;;;;;;24.70;19.13;;;;;;;4.15;100.00;99841.63;5047671;28;20187;-77
2024/01/07 01:52:32;;;;;;;27.53;20.40;;;;;;;4.17;100.00;99850.16;5057705;28;20244;-78
2024/01/07 01:54:59;;;;;;;27.53;20.80;;;;;;;4.19;100.00;99851.03;5051679;28;20189;-76
2024/01/07 01:57:32;;;;;;;28.97;20.50;;;;;;;4.14;100.00;99849.28;5052870;28;20183;-77
2024/01/07 02:00:02;;;;;;;26.87;21.53;;;;;;;4.18;100.00;99844.19;5054223;28;20186;-77
2024/01/07 02:02:27;;;;;;;28.70;21.23;;;;;;;4.12;100.00;99846.72;5047282;28;20829;-78
2024/01/07 02:04:53;;;;;;;32.40;23.87;;;;;;;4.10;100.00;99856.09;5062853;28;20194;-77
2024/01/07 02:07:18;;;;;;;29.60;22.00;;;;;;;4.06;100.00;99852.63;5055036;28;20181;-77
2024/01/07 02:09:44;;;;;;;31.37;23.93;;;;;;;4.00;100.00;99859.41;5052090;28;20240;-78
2024/01/07 02:12:11;;;;;;;32.87;23.80;;;;;;;4.02;100.00;99853.44;5050762;28;20210;-77
2024/01/07 02:14:37;;;;;;;38.50;26.87;;;;;;;4.01;100.00;99849.16;5051641;28;20193;-78
2024/01/07 02:17:02;;;;;;;34.87;25.63;;;;;;;4.02;100.00;99850.88;5049664;28;20206;-77
2024/01/07 02:19:28;;;;;;;35.70;24.13;;;;;;;3.99;100.00;99855.13;5053245;28;20188;-77
2024/01/07 02:21:53;;;;;;;37.67;25.77;;;;;;;3.94;100.00;99860.16;5054827;28;20200;-77
2024/01/07 02:24:18;;;;;;;33.47;23.90;;;;;;;3.97;100.00;99863.63;5048480;28;20217;-78
2024/01/07 02:26:44;;;;;;;40.07;26.77;;;;;;;4.03;100.00;99862.84;5051749;28;20202;-78
2024/01/07 02:29:09;;;;;;;44.33;27.77;;;;;;;4.06;100.00;99862.88;5053162;28;20274;-77
2024/01/07 02:31:34;;;;;;;47.13;30.53;;;;;;;4.09;100.00;99864.59;5048256;28;20186;-78
2024/01/07 02:34:00;;;;;;;56.27;32.73;;;;;;;4.03;100.00;99867.09;5061857;28;20208;-77
2024/01/07 02:36:25;;;;;;;52.60;33.23;;;;;;;4.03;100.00;99862.84;5053591;28;20209;-77
2024/01/07 02:38:50;;;;;;;58.10;34.00;;;;;;;3.96;100.00;99859.34;5052271;28;20210;-77
2024/01/07 02:41:16;;;;;;;64.03;37.43;;;;;;;4.04;100.00;99863.69;5050071;28;20216;-78
2024/01/07 02:43:41;;;;;;;64.53;37.20;;;;;;;4.03;100.00;99856.84;5055559;28;20582;-78
2024/01/07 02:46:07;;;;;;;59.23;36.13;;;;;;;4.06;100.00;99862.00;5050055;28;20293;-77
2024/01/07 02:48:32;;;;;;;64.17;37.37;;;;;;;4.01;100.00;99856.00;5049424;28;20191;-77
2024/01/07 02:50:58;;;;;;;70.83;37.97;;;;;;;3.98;100.00;99856.78;5054246;28;20190;-76
2024/01/07 02:53:23;;;;;;;70.40;37.27;;;;;;;3.97;100.00;99858.50;5051189;28;20256;-78
2024/01/07 02:55:48;;;;;;;63.67;37.00;;;;;;;3.98;100.00;99854.25;5048335;28;20220;-78
2024/01/07 02:58:13;;;;;;;77.33;41.70;;;;;;;4.02;100.00;99863.69;5054664;28;20182;-79
2024/01/07 03:00:39;;;;;;;76.23;41.80;;;;;;;4.03;100.00;99865.41;5053748;28;20185;-77
2024/01/07 03:03:04;;;;;;;78.57;40.17;;;;;;;3.96;100.00;99866.16;5053722;28;20211;-78
2024/01/07 03:05:32;;;;;;;84.77;42.67;;;;;;;3.97;100.00;99863.63;5048405;28;20393;-77
2024/01/07 03:07:58;;;;;;;81.23;40.87;;;;;;;4.00;100.00;99862.81;5050217;28;20186;-77
2024/01/07 03:10:24;;;;;;;81.90;42.07;;;;;;;4.00;100.00;99857.69;5056966;28;20541;-77
2024/01/07 03:12:49;;;;;;;78.03;39.90;;;;;;;3.98;100.00;99859.34;5056482;28;20299;-77
2024/01/07 03:15:15;;;;;;;79.47;39.80;;;;;;;4.02;100.00;99866.25;5052636;28;20673;-77
2024/01/07 03:17:40;;;;;;;67.47;36.77;;;;;;;3.95;100.00;99864.44;5056277;28;20676;-78
2024/01/07 03:20:06;;;;;;;75.63;37.37;;;;;;;3.90;100.00;99864.41;5051895;28;20190;-78
2024/01/07 03:22:31;;;;;;;70.67;36.60;;;;;;;3.87;100.00;99869.47;5055142;28;20278;-76
2024/01/07 03:24:57;;;;;;;74.17;36.60;;;;;;;3.85;100.00;99865.19;5049715;28;20294;-77
2024/01/07 03:27:22;;;;;;;69.97;35.43;;;;;;;3.84;100.00;99861.78;5049917;28;20225;-77
2024/01/07 03:29:47;;;;;;;73.73;36.23;;;;;;;3.85;100.00;99862.63;5056058;28;20199;-77
2024/01/07 03:32:12;;;;;;;75.53;37.20;;;;;;;3.88;100.00;99867.78;5050878;28;20213;-77
2024/01/07 03:34:39;;;;;;;79.80;39.43;;;;;;;3.94;100.00;99867.84;5051600;28;20699;-77
2024/01/07 03:37:05;;;;;;;79.43;38.20;;;;;;;3.87;100.00;99864.34;5059128;28;20290;-77
2024/01/07 03:39:32;;;;;;;79.20;37.77;;;;;;;3.88;100.00;99863.50;5053905;28;20273;-78
2024/01/07 03:41:58;;;;;;;77.90;38.50;;;;;;;3.77;100.00;99870.22;5049471;28;20263;-77
2024/01/07 03:44:23;;;;;;;72.33;37.80;;;;;;;3.82;100.00;99871.13;5053960;28;20210;-78
2024/01/07 03:46:48;;;;;;;86.17;40.17;;;;;;;3.84;100.00;99879.69;5050934;28;20206;-78
2024/01/07 03:49:14;;;;;;;77.17;38.70;;;;;;;3.78;100.00;99879.63;5054059;28;20181;-77
2024/01/07 03:51:39;;;;;;;82.10;39.93;;;;;;;3.82;100.00;99873.69;5060951;28;20186;-77
2024/01/07 03:54:05;;;;;;;76.27;38.23;;;;;;;3.78;100.00;99872.78;5054587;28;20193;-77
2024/01/07 03:56:30;;;;;;;79.23;39.13;;;;;;;3.87;100.00;99878.88;5052974;28;20242;-77
2024/01/07 03:58:56;;;;;;;86.43;41.07;;;;;;;3.81;100.00;99877.09;5048982;28;20190;-77
2024/01/07 04:01:21;;;;;;;83.23;39.90;;;;;;;3.87;100.00;99881.44;5047849;28;20555;-77
2024/01/07 04:03:47;;;;;;;87.93;39.00;;;;;;;3.91;100.00;99889.16;5051066;28;20756;-77
2024/01/07 04:06:12;;;;;;;86.57;41.17;;;;;;;3.94;100.00;99890.88;5051236;28;20210;-75
2024/01/07 04:08:37;;;;;;;96.10;42.07;;;;;;;3.99;100.00;99891.81;5048438;28;20202;-77
2024/01/07 04:11:03;;;;;;;92.60;42.50;;;;;;;3.83;100.00;99890.78;5045910;28;20204;-76
2024/01/07 04:13:28;;;;;;;91.43;41.47;;;;;;;3.80;100.00;99886.47;5055879;28;20186;-77
2024/01/07 04:15:53;;;;;;;89.60;42.03;;;;;;;3.79;100.00;99897.53;5052296;28;20639;-76
2024/01/07 04:18:19;;;;;;;92.07;41.93;;;;;;;3.79;100.00;99896.69;5054193;28;20221;-76
2024/01/07 04:20:44;;;;;;;97.00;41.57;;;;;;;3.86;100.00;99895.06;5051534;28;20182;-76
2024/01/07 04:23:09;;;;;;;92.60;42.87;;;;;;;3.87;100.00;99895.06;5046864;28;20805;-77
2024/01/07 04:25:34;;;;;;;97.13;45.50;;;;;;;3.86;100.00;99892.50;5055709;28;20221;-76
2024/01/07 04:28:00;;;;;;;96.50;44.73;;;;;;;3.85;100.00;99894.22;5047057;28;20180;-76
2024/01/07 04:30:25;;;;;;;107.80;47.20;;;;;;;3.90;100.00;99907.06;5050727;28;20198;-77
2024/01/07 04:32:50;;;;;;;107.77;47.93;;;;;;;3.83;100.00;99908.69;5055170;28;20186;-76
2024/01/07 04:35:16;;;;;;;105.80;46.77;;;;;;;3.83;100.00;99898.47;5055115;28;20209;-77
2024/01/07 04:37:42;;;;;;;96.97;46.37;;;;;;;3.79;100.00;99910.34;5057934;28;20212;-78
2024/01/07 04:40:07;;;;;;;102.67;46.30;;;;;;;3.86;100.00;99908.72;5050938;28;20640;-76
2024/01/07 04:42:33;;;;;;;98.47;45.07;;;;;;;3.89;100.00;99900.22;5054548;28;20321;-77
2024/01/07 04:44:59;;;;;;;103.10;46.83;;;;;;;3.96;100.00;99905.44;5051255;28;20201;-76
2024/01/07 04:47:29;;;;;;;98.80;45.97;;;;;;;3.97;100.00;99911.41;5051910;28;20301;-77
2024/01/07 04:49:55;;;;;;;94.30;44.00;;;;;;;3.85;100.00;99914.69;5055863;28;20263;-76
2024/01/07 04:52:22;;;;;;;79.07;41.43;;;;;;;3.94;100.00;99919.91;5048311;28;20663;-76
2024/01/07 04:54:48;;;;;;;94.27;43.57;;;;;;;3.82;100.00;99924.91;5046563;28;20256;-76
2024/01/07 04:57:14;;;;;;;85.80;40.60;;;;;;;3.83;100.00;99915.50;5051437;28;20193;-76
2024/01/07 04:59:40;;;;;;;82.23;40.03;;;;;;;3.78;100.00;99916.28;5051214;28;20763;-77
2024/01/07 05:02:05;;;;;;;81.47;39.60;;;;;;;3.76;100.00;99914.56;5052597;28;20235;-76
2024/01/07 05:04:32;;;;;;;81.87;40.43;;;;;;;3.74;100.00;99918.81;5054247;28;20210;-78
2024/01/07 05:06:57;;;;;;;92.50;43.37;;;;;;;3.75;100.00;99921.41;5055758;28;20300;-77
2024/01/07 05:09:22;;;;;;;96.30;44.67;;;;;;;3.73;100.00;99922.19;5055950;28;20258;-78
2024/01/07 05:11:47;;;;;;;99.00;45.33;;;;;;;3.70;100.00;99925.59;5055472;28;20197;-78
2024/01/07 05:14:13;;;;;;;97.13;46.90;;;;;;;3.69;100.00;99928.97;5046067;28;20175;-77
2024/01/07 05:16:38;;;;;;;101.40;46.57;;;;;;;3.62;100.00;99930.59;5053178;28;20203;-76
2024/01/07 05:19:03;;;;;;;102.77;45.80;;;;;;;3.57;100.00;99923.72;5050863;28;20190;-76
2024/01/07 05:21:29;;;;;;;102.90;47.13;;;;;;;3.59;100.00;99930.56;5053897;28;20186;-76
2024/01/07 05:23:55;;;;;;;97.70;46.37;;;;;;;3.63;100.00;99932.31;5052031;28;20271;-76
2024/01/07 05:26:21;;;;;;;102.33;46.63;;;;;;;3.52;100.00;99931.31;5050120;28;20301;-76
2024/01/07 05:28:46;;;;;;;98.10;47.53;;;;;;;3.44;100.00;99933.78;5050270;28;20252;-76
2024/01/07 05:31:16;;;;;;;100.17;46.57;;;;;;;3.44;100.00;99928.66;5051130;28;20186;-76
2024/01/07 05:33:42;;;;;;;103.17;45.83;;;;;;;3.36;100.00;99948.13;5055258;28;20195;-77
2024/01/07 05:36:07;;;;;;;98.87;48.23;;;;;;;3.40;100.00;99942.22;5054167;28;20209;-76
2024/01/07 05:38:33;;;;;;;101.83;46.80;;;;;;;3.36;100.00;99940.47;5051387;28;20198;-76
2024/01/07 05:40:58;;;;;;;105.70;47.10;;;;;;;3.43;100.00;99947.41;5045962;28;20192;-77
2024/01/07 05:43:23;;;;;;;109.47;51.20;;;;;;;3.38;100.00;99943.06;5055896;28;20615;-77
2024/01/07 05:45:48;;;;;;;106.80;49.57;;;;;;;3.42;100.00;99952.47;5052545;28;20199;-76
2024/01/07 05:48:14;;;;;;;105.53;49.20;;;;;;;3.35;100.00;99949.84;5046769;28;20276;-76
2024/01/07 05:50:39;;;;;;;113.13;50.17;;;;;;;3.40;100.00;99951.63;5059679;28;20210;-76
2024/01/07 05:53:04;;;;;;;117.87;51.53;;;;;;;3.31;100.00;99955.75;5047048;28;20174;-77
2024/01/07 05:55:30;;;;;;;111.60;51.97;;;;;;;3.33;100.00;99961.75;5055532;28;20592;-76
2024/01/07 05:57:55;;;;;;;117.03;53.47;;;;;;;3.33;100.00;99960.88;5058005;28;20186;-77
2024/01/07 06:00:20;;;;;;;124.73;54.77;;;;;;;3.37;100.00;99970.31;5058669;28;20191;-76
2024/01/07 06:02:45;;;;;;;124.03;56.13;;;;;;;3.38;100.00;99956.69;5051290;28;20300;-77
2024/01/07 06:05:11;;;;;;;124.43;54.93;;;;;;;3.38;100.00;99955.84;5052106;28;20206;-77
2024/01/07 06:07:36;;;;;;;124.33;55.60;;;;;;;3.39;100.00;99957.56;5053625;28;20221;-77
2024/01/07 06:10:02;;;;;;;123.93;56.73;;;;;;;3.38;100.00;99961.81;5055068;28;20237;-76
2024/01/07 06:12:27;;;;;;;134.17;57.37;;;;;;;3.37;100.00;99959.25;5053405;28;20202;-78
2024/01/07 06:14:52;;;;;;;123.97;56.83;;;;;;;3.40;100.00;99966.97;5049358;28;20194;-77
2024/01/07 06:17:18;;;;;;;122.77;57.03;;;;;;;3.41;100.00;99971.22;5051946;28;20214;-76
2024/01/07 06:19:43;;;;;;;132.17;58.23;;;;;;;3.44;100.00;99964.47;5059634;28;20186;-77
2024/01/07 06:22:08;;;;;;;130.90;57.47;;;;;;;3.46;100.00;99967.91;5049945;28;20539;-77
2024/01/07 06:24:34;;;;;;;124.10;57.00;;;;;;;3.41;100.00;99966.97;5056675;28;20218;-77
2024/01/07 06:26:59;;;;;;;133.40;60.23;;;;;;;3.47;100.00;99977.31;5053896;28;20214;-77
2024/01/07 06:29:24;;;;;;;127.83;58.67;;;;;;;3.47;100.00;99982.44;5045854;28;20668;-77
2024/01/07 06:31:50;;;;;;;121.37;57.20;;;;;;;3.46;100.00;99982.38;5048718;28;20199;-77
2024/01/07 06:34:15;;;;;;;125.10;59.60;;;;;;;3.40;100.00;99995.09;5047241;28;20274;-77
2024/01/07 06:36:41;;;;;;;122.43;55.33;;;;;;;3.43;100.00;99993.44;5052825;28;20235;-76
2024/01/07 06:39:07;;;;;;;114.50;56.87;;;;;;;3.40;100.00;99985.72;5046964;28;20297;-75
2024/01/07 06:41:33;;;;;;;113.80;55.73;;;;;;;3.50;100.00;99999.50;5047306;28;20198;-76
2024/01/07 06:43:58;;;;;;;113.13;54.57;;;;;;;3.44;100.00;99995.16;5052964;28;20241;-75
2024/01/07 06:46:24;;;;;;;111.73;55.17;;;;;;;3.39;100.00;100008.72;5050416;28;20202;-77
2024/01/07 06:48:49;;;;;;;107.07;54.23;;;;;;;3.38;100.00;100005.28;5052107;28;20193;-77
2024/01/07 06:51:15;;;;;;;105.97;52.60;;;;;;;3.40;100.00;100018.13;5053734;28;20182;-76
2024/01/07 06:53:40;;;;;;;99.93;50.17;;;;;;;3.37;100.00;100011.25;5045413;28;20273;-76
2024/01/07 06:56:05;;;;;;;102.53;50.43;;;;;;;3.44;100.00;100004.53;5046975;28;20214;-77
2024/01/07 06:58:32;;;;;;;92.17;47.87;;;;;;;3.41;100.00;100013.03;5049351;28;20202;-76
2024/01/07 07:00:57;;;;;;;95.93;47.50;;;;;;;3.41;100.00;100015.59;5051056;28;20671;-77
2024/01/07 07:03:23;;;;;;;93.80;49.80;;;;;;;3.40;100.00;100013.00;5049522;28;20317;-77
2024/01/07 07:05:48;;;;;;;95.37;48.23;;;;;;;3.39;100.00;100022.38;5052288;28;20226;-76
2024/01/07 07:08:13;;;;;;;100.93;49.20;;;;;;;3.42;100.00;100016.44;5052237;28;20190;-77
2024/01/07 07:10:39;;;;;;;99.93;48.27;;;;;;;3.46;100.00;100026.75;5053483;28;20692;-76
2024/01/07 07:13:04;;;;;;;101.33;50.40;;;;;;;3.46;100.00;100025.88;5048280;28;20179;-76
2024/01/07 07:15:29;;;;;;;93.53;47.73;;;;;;;3.50;100.00;100033.63;5047844;28;20343;-77
2024/01/07 07:17:55;;;;;;;93.53;47.00;;;;;;;3.53;100.00;100037.06;5052891;28;20182;-76
2024/01/07 07:20:21;;;;;;;96.87;46.63;;;;;;;3.57;100.00;100033.72;5052312;28;20197;-77
2024/01/07 07:22:46;;;;;;;89.53;46.03;;;;;;;3.53;100.00;100034.50;5057666;28;20594;-76
2024/01/07 07:25:11;;;;;;;97.30;47.80;;;;;;;3.57;100.00;100037.13;5049456;28;20232;-77
2024/01/07 07:27:37;;;;;;;94.93;47.20;;;;;;;3.59;100.00;100045.72;5046829;28;20198;-77
2024/01/07 07:30:04;;;;;;;91.40;45.60;;;;;;;3.57;100.00;100043.97;5048334;28;20187;-77
2024/01/07 07:32:29;;;;;;;88.20;46.60;;;;;;;3.58;100.00;100045.69;5052610;28;20195;-77
2024/01/07 07:34:54;;;;;;;94.63;49.47;;;;;;;3.60;100.00;100044.03;5047331;28;22267;-76
2024/01/07 07:37:20;;;;;;;97.20;48.13;;;;;;;3.64;100.00;100059.44;5050524;28;20216;-77
2024/01/07 07:39:45;;;;;;;91.40;47.40;;;;;;;3.64;100.00;100049.19;5050562;28;20202;-76
2024/01/07 07:42:10;;;;;;;88.73;46.13;;;;;;;3.69;100.00;100059.50;5054829;28;20232;-77
2024/01/07 07:44:36;;;;;;;89.43;47.90;;;;;;;3.63;100.00;100057.72;5053292;28;20271;-76
2024/01/07 07:47:01;;;;;;;88.73;47.67;;;;;;;3.60;100.00;100065.34;5053836;28;20210;-76
2024/01/07 07:49:26;;;;;;;84.90;45.10;;;;;;;3.63;100.00;100050.03;5057575;28;20187;-76
2024/01/07 07:51:52;;;;;;;87.13;44.47;;;;;;;3.62;100.00;100058.56;5049895;28;20195;-76
2024/01/07 07:54:17;;;;;;;86.27;45.93;;;;;;;3.63;100.00;100062.00;5047637;28;20190;-75
2024/01/07 07:56:42;;;;;;;81.73;44.17;;;;;;;3.66;100.00;100068.00;5051251;28;20202;-76
2024/01/07 07:59:08;;;;;;;85.10;44.77;;;;;;;3.70;100.00;100062.94;5046733;28;20193;-76
2024/01/07 08:01:34;;;;;;;82.57;45.10;;;;;;;3.67;100.00;100071.41;5054042;28;20178;-76
2024/01/07 08:03:59;;;;;;;80.67;43.53;;;;;;;3.71;100.00;100065.50;5052683;28;20210;-76
2024/01/07 08:06:25;;;;;;;83.93;44.07;;;;;;;3.74;100.00;100060.44;5050405;28;20217;-76
2024/01/07 08:08:50;;;;;;;83.63;44.87;;;;;;;3.77;100.00;100073.31;5052687;28;20787;-76
2024/01/07 08:11:15;;;;;;;86.67;46.87;;;;;;;3.69;100.00;100068.91;5049865;28;20217;-76
2024/01/07 08:13:41;;;;;;;77.30;42.87;;;;;;;3.77;100.00;100073.31;5056377;28;20263;-76
2024/01/07 08:16:06;;;;;;;87.93;46.40;;;;;;;3.78;100.00;100071.59;5050108;28;20292;-76
2024/01/07 08:18:32;;;;;;;87.47;46.27;;;;;;;3.75;100.00;100071.53;5053018;28;20200;-76
2024/01/07 08:20:58;;;;;;;85.63;51.03;;;;;;;3.72;100.00;100074.03;5058732;28;20418;-75
2024/01/07 08:23:27;;;;;;;87.23;46.77;;;;;;;3.72;100.00;100082.59;5062053;28;20329;-75
2024/01/07 08:25:52;;;;;;;77.73;44.17;;;;;;;3.73;100.00;100086.00;5064190;28;20693;-77
2024/01/07 08:28:18;;;;;;;83.10;46.27;;;;;;;3.79;100.00;100079.28;5058053;28;20232;-76
2024/01/07 08:30:44;;;;;;;98.13;50.83;;;;;;;3.75;100.00;100080.09;5052704;28;20209;-77
2024/01/07 08:33:10;;;;;;;81.13;44.90;;;;;;;3.85;100.00;100082.78;5061902;28;20182;-76
2024/01/07 08:35:35;;;;;;;91.47;49.67;;;;;;;3.80;100.00;100090.41;5058903;28;20213;-76
2024/01/07 08:38:00;;;;;;;90.27;49.17;;;;;;;3.77;100.00;100087.78;5058741;28;20296;-75
2024/01/07 08:40:26;;;;;;;89.73;49.73;;;;;;;3.84;100.00;100096.41;5053996;28;20185;-77
2024/01/07 08:42:51;;;;;;;98.10;50.20;;;;;;;3.77;100.00;100098.03;5058855;28;20316;-76
2024/01/07 08:45:16;;;;;;;92.57;51.07;;;;;;;3.87;100.00;100101.59;5052479;28;20215;-77
2024/01/07 08:47:42;;;;;;;102.97;52.23;;;;;;;3.88;100.00;100106.72;5054199;28;20277;-76
2024/01/07 08:50:07;;;;;;;111.03;54.07;;;;;;;3.86;100.00;100112.66;5048896;28;20422;-76
2024/01/07 08:52:35;;;;;;;105.47;55.97;;;;;;;3.88;100.00;100114.41;5057369;28;20863;-76
2024/01/07 08:55:01;;;;;;;110.30;53.80;;;;;;;3.87;100.00;100115.25;5054208;28;20192;-77
2024/01/07 08:57:27;;;;;;;103.87;52.80;;;;;;;3.90;100.00;100112.72;5052793;28;20210;-78
2024/01/07 08:59:52;;;;;;;99.33;51.67;;;;;;;3.95;100.00;100115.34;5049132;28;20224;-77
2024/01/07 09:02:18;;;;;;;105.03;50.33;;;;;;;3.91;100.00;100122.13;5059046;28;20215;-77
2024/01/07 09:04:43;;;;;;;95.23;51.13;;;;;;;3.90;100.00;100120.41;5054303;28;20694;-78
2024/01/07 09:07:08;;;;;;;102.57;51.63;;;;;;;3.91;100.00;100126.41;5051252;28;20209;-77
2024/01/07 09:09:33;;;;;;;106.03;53.30;;;;;;;3.93;100.00;100125.59;5056892;28;20622;-78
2024/01/07 09:12:00;;;;;;;99.60;52.43;;;;;;;3.94;100.00;100126.44;5055952;28;20199;-78
2024/01/07 09:14:25;;;;;;;103.73;52.83;;;;;;;3.88;100.00;100128.91;5059049;28;20183;-77
2024/01/07 09:16:51;;;;;;;100.23;53.80;;;;;;;3.88;100.00;100122.09;5054918;28;20209;-77
2024/01/07 09:19:17;;;;;;;97.23;53.23;;;;;;;3.93;100.00;100132.41;5054575;28;20179;-78
2024/01/07 09:21:43;;;;;;;104.40;53.63;;;;;;;3.95;100.00;100131.59;5057353;28;20201;-76
2024/01/07 09:24:08;;;;;;;100.10;50.67;;;;;;;3.91;100.00;100132.38;5055941;28;20706;-78
2024/01/07 09:26:34;;;;;;;93.20;50.73;;;;;;;3.91;100.00;100131.53;5058340;28;20226;-77
2024/01/07 09:28:59;;;;;;;90.00;51.43;;;;;;;4.00;100.00;100133.38;5056647;28;20603;-75
2024/01/07 09:31:24;;;;;;;81.30;45.13;;;;;;;4.00;100.00;100148.75;5054088;28;20189;-77
2024/01/07 09:33:50;;;;;;;88.33;48.60;;;;;;;4.01;100.00;100143.63;5056721;28;20559;-76
2024/01/07 09:36:15;;;;;;;83.27;47.10;;;;;;;4.02;100.00;100145.34;5054995;28;20203;-77
2024/01/07 09:38:41;;;;;;;94.83;50.03;;;;;;;4.03;100.00;100148.75;5056416;28;20191;-77
2024/01/07 09:41:07;;;;;;;94.63;50.37;;;;;;;4.03;100.00;100146.19;5052483;28;20189;-77
2024/01/07 09:43:33;;;;;;;89.20;49.77;;;;;;;4.04;100.00;100151.38;5055575;28;20213;-77
2024/01/07 09:45:59;;;;;;;80.17;46.87;;;;;;;4.10;100.00;100145.47;5053284;28;20248;-77
2024/01/07 09:48:25;;;;;;;83.83;47.50;;;;;;;4.09;100.00;100149.72;5052226;28;20183;-77
2024/01/07 09:50:52;;;;;;;90.57;48.13;;;;;;;4.11;100.00;100147.19;5050280;28;20240;-77
2024/01/07 09:53:20;;;;;;;83.23;46.57;;;;;;;4.07;100.00;100140.28;5057008;28;20276;-79
2024/01/07 09:55:57;;;;;;;80.93;46.23;;;;;;;4.09;100.00;100146.31;5053951;28;20232;-77
2024/01/07 09:58:23;;;;;;;75.07;44.37;;;;;;;4.09;100.00;100147.16;5056213;28;20201;-79
2024/01/07 10:00:49;;;;;;;74.33;44.50;;;;;;;4.14;100.00;100156.63;5046859;28;20598;-77
2024/01/07 10:03:14;;;;;;;75.37;44.93;;;;;;;4.10;100.00;100151.44;5053357;28;20348;-78
2024/01/07 10:05:39;;;;;;;69.50;43.10;;;;;;;4.11;100.00;100153.16;5049069;28;20691;-78
2024/01/07 10:08:06;;;;;;;64.93;41.90;;;;;;;4.18;100.00;100161.81;5055415;28;20261;-78
2024/01/07 10:10:31;;;;;;;69.47;43.03;;;;;;;4.15;100.00;100154.09;5045854;28;20218;-78
2024/01/07 10:12:57;;;;;;;72.20;45.17;;;;;;;4.12;100.00;100162.56;5054152;28;21038;-77
2024/01/07 10:15:22;;;;;;;65.63;41.33;;;;;;;4.14;100.00;100156.63;5054156;28;20206;-78
2024/01/07 10:17:48;;;;;;;64.97;41.80;;;;;;;4.15;100.00;100154.09;5057008;28;20686;-77
2024/01/07 10:20:13;;;;;;;67.93;40.77;;;;;;;4.17;100.00;100161.78;5048965;28;20182;-77
2024/01/07 10:22:39;;;;;;;66.87;40.93;;;;;;;4.16;100.00;100157.50;5047535;28;20251;-77
2024/01/07 10:25:05;;;;;;;67.63;42.23;;;;;;;4.17;100.00;100161.78;5043582;28;20194;-77
2024/01/07 10:27:33;;;;;;;69.03;42.90;;;;;;;4.21;100.00;100161.00;5045720;28;20183;-77
2024/01/07 10:29:59;;;;;;;66.33;40.73;;;;;;;4.19;100.00;100160.13;5047999;28;20186;-77
2024/01/07 10:32:24;;;;;;;65.47;40.87;;;;;;;4.20;100.00;100164.41;5046247;28;20272;-77
2024/01/07 10:35:03;;;;;;;61.43;40.67;;;;;;;4.27;100.00;100159.41;5044123;28;20667;-78
2024/01/07 10:37:29;;;;;;;63.07;40.17;;;;;;;4.30;100.00;100166.25;5048622;28;20190;-77
2024/01/07 10:40:00;;;;;;;56.80;38.30;;;;;;;4.31;100.00;100159.44;5047392;28;20252;-76
2024/01/07 10:42:26;;;;;;;57.77;37.40;;;;;;;4.26;100.00;100159.34;5046475;28;20197;-77
2024/01/07 10:44:54;;;;;;;61.27;39.60;;;;;;;4.28;100.00;100162.81;5049943;28;20214;-77
2024/01/07 10:47:22;;;;;;;55.93;37.07;;;;;;;4.32;100.00;100158.59;5050221;28;21223;-77
2024/01/07 10:49:50;;;;;;;59.30;36.93;;;;;;;4.35;100.00;100158.63;5053483;28;20190;-76
2024/01/07 10:52:16;;;;;;;53.50;37.37;;;;;;;4.36;100.00;100163.78;5053131;28;20554;-76
2024/01/07 10:54:44;;;;;;;53.70;35.43;;;;;;;4.37;100.00;100167.19;5048099;28;20179;-76
2024/01/07 10:57:26;;;;;;;52.20;34.93;;;;;;;4.36;100.00;100163.78;5051564;28;20202;-77
2024/01/07 10:59:54;;;;;;;47.83;32.47;;;;;;;4.39;100.00;100168.94;5052111;28;20186;-77
2024/01/07 11:02:21;;;;;;;43.80;32.30;;;;;;;4.42;100.00;100169.00;5052894;28;20215;-77
2024/01/07 11:05:11;;;;;;;46.70;32.37;;;;;;;4.43;100.00;100167.31;5052325;28;20218;-77